Nyk Deneb — 3EOF8 — position and weather

sailwx.info

Track history (hours):
 
Tides and Currents Weather Stations Pressure Air Temp Water Temp Dewpoint Dewpoint Depression Visibility Wind Speed Wind Dir Waves Ship Positions

Nyk Deneb

Last reported at 2016-Jul-25 08:33 UTC. Time now 2016-Jul-29 14:05 UTC.
Position N 38°21' W 126°38'.

Length 294 m; draft 10.9 m.

Type: Ship (hazmat cat B). MMSI: 355717000.

Date/timePositionNaut miles runAvg speedWind from/ knotsBaromVisibWave heightAir tempDewpointWater temp
2016-Jul-25 08:33N 38°21' W 126°38'5618.5
2016-Jul-25 05:33N 38°16' W 125°27'1818.0
2016-Jul-25 04:33N 38°15' W 125°04'1818.3
2016-Jul-25 03:33N 38°14' W 124°41'1818.2
2016-Jul-25 02:33N 38°13' W 124°18'1918.8
2016-Jul-25 01:33N 38°11' W 123°54'1818.2
2016-Jul-25 00:33N 38°10' W 123°31'1716.8
2016-Jul-24 23:33N 38°02' W 123°12'1918.7
2016-Jul-24 22:33N 37°51' W 122°53'1313.2
2016-Jul-24 21:34N 37°46' W 122°37'1111.3
2016-Jul-24 20:33N 37°49' W 122°23'5 5.0
2016-Jul-24 19:34N 37°48' W 122°17'1 1.1
2016-Jul-24 18:27N 37°48' W 122°19'0 0.0
2016-Jul-24 17:33N 37°48' W 122°19'0 0.0
2016-Jul-24 16:33N 37°48' W 122°19'0 0.0
2016-Jul-24 15:33N 37°48' W 122°19'0 0.0
2016-Jul-24 14:33N 37°48' W 122°19'0 0.0
2016-Jul-24 13:33N 37°48' W 122°19'0 0.0
2016-Jul-24 12:33N 37°48' W 122°19'0 0.0
2016-Jul-24 11:33N 37°48' W 122°19'0 0.0
2016-Jul-24 10:33N 37°48' W 122°19'0 0.0
2016-Jul-24 09:33N 37°48' W 122°19'0 0.0
2016-Jul-24 08:33N 37°48' W 122°19'0 0.0
2016-Jul-24 07:33N 37°48' W 122°19'0 0.0
2016-Jul-24 06:33N 37°48' W 122°19'0 0.0
2016-Jul-24 05:33N 37°48' W 122°19'0 0.0
2016-Jul-24 04:33N 37°48' W 122°19'0 0.0
2016-Jul-24 03:33N 37°48' W 122°19'0 0.2
2016-Jul-24 02:33N 37°48' W 122°19'9 9.0
2016-Jul-24 01:33N 37°48' W 122°31'10 9.9
2016-Jul-24 00:33N 37°42' W 122°41'9 9.0
2016-Jul-23 23:33N 37°33' W 122°40'1212.4
2016-Jul-23 22:33N 37°21' W 122°40'1616.1
2016-Jul-23 21:34N 37°05' W 122°39'1918.8
2016-Jul-23 20:34N 36°46' W 122°38'1918.9
2016-Jul-23 19:34N 36°28' W 122°31'1919.1
2016-Jul-23 18:34N 36°11' W 122°19'1919.1
2016-Jul-23 17:33N 35°55' W 122°06'1818.5
2016-Jul-23 16:34N 35°40' W 121°53'1919.3
2016-Jul-23 15:34N 35°24' W 121°41'1919.2
2016-Jul-23 14:34N 35°07' W 121°29'1919.2
2016-Jul-23 13:34N 34°50' W 121°18'2119.5
2016-Jul-23 12:30N 34°33' W 121°03'1819.3
2016-Jul-23 11:34N 34°24' W 120°44'2020.1
2016-Jul-23 10:33N 34°19' W 120°20'2020.1
2016-Jul-23 09:33N 34°14' W 119°57'2019.6
2016-Jul-23 08:33N 34°09' W 119°34'1919.3
2016-Jul-23 07:33N 34°03' W 119°12'1919.4
2016-Jul-23 06:33N 33°53' W 118°52'2411.9
2016-Jul-23 04:33N 33°41' W 118°27'10 9.6
2016-Jul-23 03:33N 33°40' W 118°15'5 4.8
2016-Jul-23 02:32N 33°45' W 118°16'1 0.6
2016-Jul-23 01:31N 33°46' W 118°15'0 0.0
2016-Jul-22 23:31N 33°46' W 118°15'0 0.0
2016-Jul-22 22:13N 33°46' W 118°15'0 0.0
2016-Jul-22 21:31N 33°46' W 118°15'0 0.0
2016-Jul-22 20:31N 33°46' W 118°15'0 0.0
2016-Jul-22 19:31N 33°46' W 118°15'0 0.0
2016-Jul-22 18:31N 33°46' W 118°15'0 0.0
2016-Jul-22 17:31N 33°46' W 118°15'0 0.0
2016-Jul-22 16:31N 33°46' W 118°15'0 0.0
2016-Jul-22 15:31N 33°46' W 118°15'0 0.0
2016-Jul-22 14:31N 33°46' W 118°15'0 0.0
2016-Jul-22 13:31N 33°46' W 118°15'0 0.0
2016-Jul-22 12:07N 33°46' W 118°15'0 0.0
2016-Jul-22 11:25N 33°46' W 118°15'0 0.0
2016-Jul-22 10:31N 33°46' W 118°15'0 0.0
2016-Jul-22 09:31N 33°46' W 118°15'0 0.0
2016-Jul-22 08:31N 33°46' W 118°15'0 0.0
2016-Jul-22 07:25N 33°46' W 118°15'0 0.0
2016-Jul-22 01:25N 33°46' W 118°15'0 0.0
2016-Jul-22 00:25N 33°46' W 118°15'0 0.0
2016-Jul-21 21:25N 33°46' W 118°15'0 0.0
2016-Jul-21 20:25N 33°46' W 118°15'0 0.0
2016-Jul-21 19:31N 33°46' W 118°15'0 0.0
2016-Jul-21 18:31N 33°46' W 118°15'0 0.0
2016-Jul-21 17:31N 33°46' W 118°15'0 0.0
2016-Jul-21 16:31N 33°46' W 118°15'0 0.0
2016-Jul-21 15:31N 33°46' W 118°15'0 0.0
2016-Jul-21 14:31N 33°46' W 118°15'0 0.3
2016-Jul-21 13:33N 33°45' W 118°16'5 4.8
2016-Jul-21 12:33N 33°41' W 118°14'6 6.0
2016-Jul-21 11:33N 33°36' W 118°10'8 7.6
2016-Jul-21 10:33N 33°29' W 118°07'9 8.6
2016-Jul-21 09:33N 33°21' W 118°03'1211.6
2016-Jul-21 08:33N 33°10' W 117°58'1413.9
2016-Jul-21 07:33N 32°57' W 117°52'1413.8
2016-Jul-21 06:33N 32°44' W 117°46'1414.1
2016-Jul-21 05:33N 32°30' W 117°43'1414.3
2016-Jul-21 04:33N 32°16' W 117°40'2 1.8
2016-Jul-21 03:33N 32°15' W 117°39'1 0.8
2016-Jul-21 02:33N 32°15' W 117°38'8 7.6
2016-Jul-21 01:33N 32°08' W 117°33'1515.0
2016-Jul-21 00:33N 31°54' W 117°28'1515.1
2016-Jul-20 23:33N 31°40' W 117°23'1515.1
2016-Jul-20 22:33N 31°26' W 117°17'1514.9
2016-Jul-20 21:33N 31°11' W 117°11'1515.2
2016-Jul-20 20:33N 30°57' W 117°06'1616.2
2016-Jul-20 19:33N 30°41' W 117°01'1716.6
2016-Jul-20 18:33N 30°26' W 116°54'3818.9
2016-Jul-20 16:32N 29°50' W 116°41'1919.2
2016-Jul-20 15:33N 29°32' W 116°34'2019.7
2016-Jul-20 14:33N 29°13' W 116°27'2019.7
2016-Jul-20 13:32N 28°54' W 116°20'2020.2
2016-Jul-20 12:34N 28°35' W 116°13'2019.8
2016-Jul-20 11:32N 28°15' W 116°06'1919.8
2016-Jul-20 10:34N 27°58' W 115°58'1919.5
2016-Jul-20 09:34N 27°42' W 115°45'1919.1
2016-Jul-20 08:33N 27°27' W 115°32'1919.1
2016-Jul-20 07:33N 27°11' W 115°20'1919.5
2016-Jul-20 06:34N 26°55' W 115°07'2019.9
2016-Jul-20 05:34N 26°39' W 114°54'2320.0
2016-Jul-20 04:24N 26°21' W 114°38'  
Track history (hours):
 
Tides and Currents Weather Stations Pressure Air Temp Water Temp Dewpoint Dewpoint Depression Visibility Wind Speed Wind Dir Waves Ship Positions

Nyk Deneb

Last reported at 2016-Jul-25 08:33 UTC. Time now 2016-Jul-29 14:05 UTC.
Position N 38°21' W 126°38'.

Length 294 m; draft 10.9 m.

Type: Ship (hazmat cat B). MMSI: 355717000.

Date/timePositionNaut miles runAvg speedWind from/ knotsBaromVisibWave heightAir tempDewpointWater temp
2016-Jul-25 08:33N 38°21' W 126°38'5618.5
2016-Jul-25 05:33N 38°16' W 125°27'1818.0
2016-Jul-25 04:33N 38°15' W 125°04'1818.3
2016-Jul-25 03:33N 38°14' W 124°41'1818.2
2016-Jul-25 02:33N 38°13' W 124°18'1918.8
2016-Jul-25 01:33N 38°11' W 123°54'1818.2
2016-Jul-25 00:33N 38°10' W 123°31'1716.8
2016-Jul-24 23:33N 38°02' W 123°12'1918.7
2016-Jul-24 22:33N 37°51' W 122°53'1313.2
2016-Jul-24 21:34N 37°46' W 122°37'1111.3
2016-Jul-24 20:33N 37°49' W 122°23'5 5.0
2016-Jul-24 19:34N 37°48' W 122°17'1 1.1
2016-Jul-24 18:27N 37°48' W 122°19'0 0.0
2016-Jul-24 17:33N 37°48' W 122°19'0 0.0
2016-Jul-24 16:33N 37°48' W 122°19'0 0.0
2016-Jul-24 15:33N 37°48' W 122°19'0 0.0
2016-Jul-24 14:33N 37°48' W 122°19'0 0.0
2016-Jul-24 13:33N 37°48' W 122°19'0 0.0
2016-Jul-24 12:33N 37°48' W 122°19'0 0.0
2016-Jul-24 11:33N 37°48' W 122°19'0 0.0
2016-Jul-24 10:33N 37°48' W 122°19'0 0.0
2016-Jul-24 09:33N 37°48' W 122°19'0 0.0
2016-Jul-24 08:33N 37°48' W 122°19'0 0.0
2016-Jul-24 07:33N 37°48' W 122°19'0 0.0
2016-Jul-24 06:33N 37°48' W 122°19'0 0.0
2016-Jul-24 05:33N 37°48' W 122°19'0 0.0
2016-Jul-24 04:33N 37°48' W 122°19'0 0.0
2016-Jul-24 03:33N 37°48' W 122°19'0 0.2
2016-Jul-24 02:33N 37°48' W 122°19'9 9.0
2016-Jul-24 01:33N 37°48' W 122°31'10 9.9
2016-Jul-24 00:33N 37°42' W 122°41'9 9.0
2016-Jul-23 23:33N 37°33' W 122°40'1212.4
2016-Jul-23 22:33N 37°21' W 122°40'1616.1
2016-Jul-23 21:34N 37°05' W 122°39'1918.8
2016-Jul-23 20:34N 36°46' W 122°38'1918.9
2016-Jul-23 19:34N 36°28' W 122°31'1919.1
2016-Jul-23 18:34N 36°11' W 122°19'1919.1
2016-Jul-23 17:33N 35°55' W 122°06'1818.5
2016-Jul-23 16:34N 35°40' W 121°53'1919.3
2016-Jul-23 15:34N 35°24' W 121°41'1919.2
2016-Jul-23 14:34N 35°07' W 121°29'1919.2
2016-Jul-23 13:34N 34°50' W 121°18'2119.5
2016-Jul-23 12:30N 34°33' W 121°03'1819.3
2016-Jul-23 11:34N 34°24' W 120°44'2020.1
2016-Jul-23 10:33N 34°19' W 120°20'2020.1
2016-Jul-23 09:33N 34°14' W 119°57'2019.6
2016-Jul-23 08:33N 34°09' W 119°34'1919.3
2016-Jul-23 07:33N 34°03' W 119°12'1919.4
2016-Jul-23 06:33N 33°53' W 118°52'2411.9
2016-Jul-23 04:33N 33°41' W 118°27'10 9.6
2016-Jul-23 03:33N 33°40' W 118°15'5 4.8
2016-Jul-23 02:32N 33°45' W 118°16'1 0.6
2016-Jul-23 01:31N 33°46' W 118°15'0 0.0
2016-Jul-22 23:31N 33°46' W 118°15'0 0.0
2016-Jul-22 22:13N 33°46' W 118°15'0 0.0
2016-Jul-22 21:31N 33°46' W 118°15'0 0.0
2016-Jul-22 20:31N 33°46' W 118°15'0 0.0
2016-Jul-22 19:31N 33°46' W 118°15'0 0.0
2016-Jul-22 18:31N 33°46' W 118°15'0 0.0
2016-Jul-22 17:31N 33°46' W 118°15'0 0.0
2016-Jul-22 16:31N 33°46' W 118°15'0 0.0
2016-Jul-22 15:31N 33°46' W 118°15'0 0.0
2016-Jul-22 14:31N 33°46' W 118°15'0 0.0
2016-Jul-22 13:31N 33°46' W 118°15'0 0.0
2016-Jul-22 12:07N 33°46' W 118°15'0 0.0
2016-Jul-22 11:25N 33°46' W 118°15'0 0.0
2016-Jul-22 10:31N 33°46' W 118°15'0 0.0
2016-Jul-22 09:31N 33°46' W 118°15'0 0.0
2016-Jul-22 08:31N 33°46' W 118°15'0 0.0
2016-Jul-22 07:25N 33°46' W 118°15'0 0.0
2016-Jul-22 01:25N 33°46' W 118°15'0 0.0
2016-Jul-22 00:25N 33°46' W 118°15'0 0.0
2016-Jul-21 21:25N 33°46' W 118°15'0 0.0
2016-Jul-21 20:25N 33°46' W 118°15'0 0.0
2016-Jul-21 19:31N 33°46' W 118°15'0 0.0
2016-Jul-21 18:31N 33°46' W 118°15'0 0.0
2016-Jul-21 17:31N 33°46' W 118°15'0 0.0
2016-Jul-21 16:31N 33°46' W 118°15'0 0.0
2016-Jul-21 15:31N 33°46' W 118°15'0 0.0
2016-Jul-21 14:31N 33°46' W 118°15'0 0.3
2016-Jul-21 13:33N 33°45' W 118°16'5 4.8
2016-Jul-21 12:33N 33°41' W 118°14'6 6.0
2016-Jul-21 11:33N 33°36' W 118°10'8 7.6
2016-Jul-21 10:33N 33°29' W 118°07'9 8.6
2016-Jul-21 09:33N 33°21' W 118°03'1211.6
2016-Jul-21 08:33N 33°10' W 117°58'1413.9
2016-Jul-21 07:33N 32°57' W 117°52'1413.8
2016-Jul-21 06:33N 32°44' W 117°46'1414.1
2016-Jul-21 05:33N 32°30' W 117°43'1414.3
2016-Jul-21 04:33N 32°16' W 117°40'2 1.8
2016-Jul-21 03:33N 32°15' W 117°39'1 0.8
2016-Jul-21 02:33N 32°15' W 117°38'8 7.6
2016-Jul-21 01:33N 32°08' W 117°33'1515.0
2016-Jul-21 00:33N 31°54' W 117°28'1515.1
2016-Jul-20 23:33N 31°40' W 117°23'1515.1
2016-Jul-20 22:33N 31°26' W 117°17'1514.9
2016-Jul-20 21:33N 31°11' W 117°11'1515.2
2016-Jul-20 20:33N 30°57' W 117°06'1616.2
2016-Jul-20 19:33N 30°41' W 117°01'1716.6
2016-Jul-20 18:33N 30°26' W 116°54'3818.9
2016-Jul-20 16:32N 29°50' W 116°41'1919.2
2016-Jul-20 15:33N 29°32' W 116°34'2019.7
2016-Jul-20 14:33N 29°13' W 116°27'2019.7
2016-Jul-20 13:32N 28°54' W 116°20'2020.2
2016-Jul-20 12:34N 28°35' W 116°13'2019.8
2016-Jul-20 11:32N 28°15' W 116°06'1919.8
2016-Jul-20 10:34N 27°58' W 115°58'1919.5
2016-Jul-20 09:34N 27°42' W 115°45'1919.1
2016-Jul-20 08:33N 27°27' W 115°32'1919.1
2016-Jul-20 07:33N 27°11' W 115°20'1919.5
2016-Jul-20 06:34N 26°55' W 115°07'2019.9
2016-Jul-20 05:34N 26°39' W 114°54'2320.0
2016-Jul-20 04:24N 26°21' W 114°38'  

Dump ship's entire track history